CheckWX is a tool to help pilots better visualize weather data.  It is not intended as a substitute for an official pre-flight weather briefing.

09:28:35 UTC

KPOE METAR
Polk AAF Airport
Fort Polk, Louisiana, USA
Current

31 mins ago

KPOE 200858Z AUTO 31009KT 1 1/4SM BR OVC002 09/09 A2983 RMK AO2 LTG DSNT NE AND S SLPNO 60001 T00910088 51007
Observed
Feb-20 @ 08:58 UTC
Wind
  • 310° at 9 KTS
Visibility
2,012 meters
Flight Rules
LIFR
Conditions
Mist
Cloud Levels
  • Overcast at 200' AGL
Temperature
C / 48°F
Dewpoint
C / 48°F
Humidity
100%
Altimeter
29.83" Hg
Pressure
1010.12 hPa
Previous

46 mins ago

KPOE 200843Z AUTO 32007KT 1 1/8SM BR OVC002 09/09 A2982 RMK AO2 LTG DSNT NE SLP101
Observed
Feb-20 @ 08:43 UTC
Wind
  • 320° at 7 KTS
Visibility
1,819 meters
Flight Rules
LIFR
Conditions
Mist
Cloud Levels
  • Overcast at 200' AGL
Temperature
C / 48°F
Dewpoint
C / 48°F
Humidity
100%
Altimeter
29.82" Hg
Pressure
1010.1 hPa
Previous

1 hour ago

KPOE 200818Z AUTO 31007KT 1SM BR VV002 10/10 A2982 RMK AO2 SLP101 RVRNO
Observed
Feb-20 @ 08:18 UTC
Wind
  • 310° at 7 KTS
Visibility
1,609 meters
Flight Rules
LIFR
Conditions
Mist
Cloud Levels
  • Vertical visibility at 200' AGL
Temperature
10°C / 50°F
Dewpoint
10°C / 50°F
Humidity
100%
Altimeter
29.82" Hg
Pressure
1010.1 hPa